Time;durP1;ratioP1;P1;durP2;ratioP2;P2;SDS_P1;SDS_P2;PMS_P1;PMS_P2;Temp;Humidity;BMP_temperature;BMP_pressure;BME280_temperature;BME280_humidity;BME280_pressure;Samples;Min_cycle;Max_cycle;Signal;HPM_P1;HPM_P2
2021/09/11 00:00:52;;;;;;;11.10;9.00;;;;;;;12.86;75.46;100588.80;94435;1192;94995;-75
2021/09/11 00:03:01;;;;;;;12.80;7.80;;;;;;;12.79;75.53;100591.28;94475;1192;82284;-76
2021/09/11 00:05:14;;;;;;;10.40;8.90;;;;;;;12.73;75.68;100588.17;94487;1192;82355;-71
2021/09/11 00:07:21;;;;;;;11.20;7.70;;;;;;;12.72;75.76;100589.73;94446;1192;97602;-72
2021/09/11 00:09:29;;;;;;;12.00;7.10;;;;;;;12.73;75.80;100591.84;94510;1192;87976;-71
2021/09/11 00:11:39;;;;;;;12.80;8.20;;;;;;;12.71;75.80;100591.16;94448;1192;94179;-71
2021/09/11 00:13:47;;;;;;;13.30;8.10;;;;;;;12.67;75.80;100587.33;94469;1192;81566;-68
2021/09/11 00:15:54;;;;;;;10.00;8.00;;;;;;;12.61;75.78;100585.25;94422;1192;81057;-77
2021/09/11 00:18:04;;;;;;;11.60;8.10;;;;;;;12.57;75.98;100585.01;94400;1193;99540;-76
2021/09/11 00:20:14;;;;;;;10.50;7.70;;;;;;;12.51;76.09;100590.05;94473;1192;88136;-72
2021/09/11 00:22:21;;;;;;;10.80;8.00;;;;;;;12.43;76.22;100587.54;94487;1192;94265;-72
2021/09/11 00:24:29;;;;;;;11.30;8.20;;;;;;;12.43;76.30;100588.13;94452;1192;81861;-72
2021/09/11 00:26:38;;;;;;;9.80;7.60;;;;;;;12.40;76.26;100585.88;94542;1192;81599;-71
2021/09/11 00:28:46;;;;;;;12.00;7.50;;;;;;;12.36;76.32;100584.90;94510;1192;98601;-70
2021/09/11 00:30:56;;;;;;;11.80;7.60;;;;;;;12.31;76.46;100586.23;94455;1192;88543;-77
2021/09/11 00:33:04;;;;;;;11.40;8.30;;;;;;;12.32;76.53;100590.11;94469;1192;95200;-77
2021/09/11 00:35:15;;;;;;;11.40;7.60;;;;;;;12.28;76.58;100588.15;94454;1192;81179;-77
2021/09/11 00:37:22;;;;;;;10.00;7.40;;;;;;;12.26;76.62;100590.18;94487;1192;81797;-76
2021/09/11 00:39:30;;;;;;;11.00;8.10;;;;;;;12.28;76.71;100586.31;94484;1192;98808;-76
2021/09/11 00:41:37;;;;;;;11.20;8.50;;;;;;;12.32;76.73;100581.41;94410;1192;88387;-77
2021/09/11 00:43:50;;;;;;;11.20;8.00;;;;;;;12.37;76.79;100577.67;94368;1193;93694;-77
2021/09/11 00:45:58;;;;;;;11.30;8.70;;;;;;;12.39;76.82;100576.37;94482;1192;80774;-77
2021/09/11 00:48:06;;;;;;;10.70;8.20;;;;;;;12.47;76.84;100577.05;94477;1192;80597;-78
2021/09/11 00:50:16;;;;;;;11.00;8.60;;;;;;;12.51;76.88;100577.16;94515;1192;97174;-72
2021/09/11 00:52:24;;;;;;;12.70;8.90;;;;;;;12.54;76.86;100575.52;94515;1192;88198;-74
2021/09/11 00:54:31;;;;;;;10.30;8.40;;;;;;;12.54;76.89;100575.39;94471;1192;93517;-71
2021/09/11 00:56:39;;;;;;;12.60;8.20;;;;;;;12.53;76.87;100572.80;94490;1192;80370;-70
2021/09/11 00:58:49;;;;;;;12.70;8.90;;;;;;;12.49;76.78;100573.90;94477;1192;82301;-71
2021/09/11 01:00:56;;;;;;;12.10;9.10;;;;;;;12.43;76.79;100574.95;94474;1192;96747;-72
2021/09/11 01:03:04;;;;;;;12.50;8.70;;;;;;;12.40;76.80;100573.92;94513;1192;88841;-71
2021/09/11 01:05:14;;;;;;;15.90;8.60;;;;;;;12.33;76.79;100574.41;94484;1192;94683;-72
2021/09/11 01:07:21;;;;;;;11.70;8.10;;;;;;;12.27;76.98;100574.69;94483;1192;81010;-71
2021/09/11 01:09:31;;;;;;;10.70;8.10;;;;;;;12.22;77.07;100572.30;94470;1192;83380;-76
2021/09/11 01:11:40;;;;;;;12.00;8.50;;;;;;;12.17;77.12;100570.27;94440;1192;98897;-76
2021/09/11 01:13:48;;;;;;;10.90;8.20;;;;;;;12.16;77.22;100568.22;94521;1192;88680;-76
2021/09/11 01:16:00;;;;;;;11.40;8.70;;;;;;;12.10;77.34;100572.75;94487;1192;94419;-73
2021/09/11 01:18:09;;;;;;;15.10;8.20;;;;;;;12.06;77.32;100570.21;94489;1192;79755;-70
2021/09/11 01:20:17;;;;;;;9.80;7.80;;;;;;;12.01;77.47;100570.09;94469;1192;81798;-76
2021/09/11 01:22:25;;;;;;;11.50;8.50;;;;;;;12.03;77.55;100568.61;94511;1192;98557;-77
2021/09/11 01:24:32;;;;;;;12.00;8.50;;;;;;;12.06;77.62;100569.84;94477;1192;86657;-72
2021/09/11 01:26:40;;;;;;;10.90;8.10;;;;;;;12.04;77.63;100570.41;94280;1193;93420;-70
2021/09/11 01:28:48;;;;;;;13.00;7.80;;;;;;;11.99;77.55;100572.70;94232;1193;80651;-72
2021/09/11 01:30:55;;;;;;;11.10;7.90;;;;;;;11.94;77.68;100573.06;94207;1193;82197;-77
2021/09/11 01:33:03;;;;;;;10.40;7.80;;;;;;;11.95;77.69;100574.15;94227;1193;97064;-77
2021/09/11 01:35:12;;;;;;;11.80;8.40;;;;;;;11.90;77.75;100572.48;94232;1193;87381;-76
2021/09/11 01:37:23;;;;;;;9.20;7.80;;;;;;;11.86;77.90;100573.86;94240;1193;94036;-76
2021/09/11 01:39:30;;;;;;;11.60;9.00;;;;;;;11.84;78.00;100572.09;94208;1193;80745;-76
2021/09/11 01:41:38;;;;;;;11.10;8.30;;;;;;;11.82;78.03;100571.86;94278;1193;81205;-76
2021/09/11 01:43:45;;;;;;;10.50;7.40;;;;;;;11.81;78.09;100571.73;94249;1193;98156;-77
2021/09/11 01:45:53;;;;;;;12.00;8.10;;;;;;;11.77;78.10;100572.68;94190;1193;88309;-72
2021/09/11 01:48:01;;;;;;;10.30;8.60;;;;;;;11.74;78.15;100568.50;94213;1193;92921;-72
2021/09/11 01:50:13;;;;;;;11.30;8.30;;;;;;;11.74;78.17;100571.38;94211;1193;79734;-76
2021/09/11 01:52:22;;;;;;;11.30;8.20;;;;;;;11.72;78.25;100568.39;94253;1193;80561;-77
2021/09/11 01:54:29;;;;;;;9.20;8.00;;;;;;;11.66;78.33;100567.38;94223;1193;98695;-74
2021/09/11 01:56:37;;;;;;;11.70;8.10;;;;;;;11.65;78.33;100567.41;94215;1193;88025;-70
2021/09/11 01:58:44;;;;;;;10.40;8.40;;;;;;;11.63;78.46;100566.60;94232;1193;94108;-71
2021/09/11 02:00:55;;;;;;;9.00;7.80;;;;;;;11.62;78.55;100570.88;94214;1193;79992;-77
2021/09/11 02:03:02;;;;;;;12.30;8.30;;;;;;;11.57;78.56;100568.66;94258;1193;80694;-74
2021/09/11 02:05:13;;;;;;;11.90;8.80;;;;;;;11.50;78.60;100566.36;94205;1193;99187;-72
2021/09/11 02:07:21;;;;;;;12.70;8.20;;;;;;;11.46;78.66;100565.25;94269;1193;88344;-72
2021/09/11 02:09:29;;;;;;;10.90;8.70;;;;;;;11.42;78.67;100565.11;94206;1193;93331;-72
2021/09/11 02:11:36;;;;;;;11.50;8.80;;;;;;;11.42;78.91;100567.27;94248;1193;78358;-72
2021/09/11 02:13:44;;;;;;;10.30;8.40;;;;;;;11.40;78.97;100567.34;94218;1193;80582;-72
2021/09/11 02:15:51;;;;;;;13.00;8.60;;;;;;;11.39;79.03;100572.03;94189;1193;98545;-77
2021/09/11 02:17:59;;;;;;;15.10;8.80;;;;;;;11.38;79.03;100572.86;94254;1193;87939;-77
2021/09/11 02:20:09;;;;;;;12.10;8.10;;;;;;;11.34;79.04;100572.92;94216;1193;93464;-77
2021/09/11 02:22:16;;;;;;;11.10;8.80;;;;;;;11.25;79.12;100568.86;94233;1193;78146;-76
2021/09/11 02:24:24;;;;;;;11.10;8.80;;;;;;;11.23;79.22;100571.70;94241;1193;83321;-71
2021/09/11 02:26:31;;;;;;;12.40;9.20;;;;;;;11.20;79.38;100571.61;94430;1192;98165;-71
2021/09/11 02:28:39;;;;;;;11.20;9.40;;;;;;;11.20;79.35;100573.48;94513;1192;86811;-72
2021/09/11 02:30:47;;;;;;;12.40;8.50;;;;;;;11.18;79.36;100568.19;94437;1192;94666;-71
2021/09/11 02:32:54;;;;;;;12.00;8.40;;;;;;;11.14;79.38;100567.73;94466;1192;80406;-72
2021/09/11 02:35:02;;;;;;;10.90;8.40;;;;;;;11.12;79.41;100565.24;94484;1192;81306;-72
2021/09/11 02:37:11;;;;;;;11.50;8.70;;;;;;;11.12;79.52;100563.66;94500;1192;99259;-70
2021/09/11 02:39:18;;;;;;;13.30;8.90;;;;;;;11.12;79.59;100562.20;94504;1192;86250;-72
2021/09/11 02:41:29;;;;;;;11.80;9.00;;;;;;;11.13;79.57;100561.70;94459;1192;94758;-76
2021/09/11 02:43:37;;;;;;;10.90;8.60;;;;;;;11.17;79.56;100559.07;94466;1192;80336;-77
2021/09/11 02:45:44;;;;;;;10.50;8.30;;;;;;;11.19;79.57;100562.39;94495;1192;81017;-71
2021/09/11 02:47:52;;;;;;;13.90;8.50;;;;;;;11.19;79.56;100563.27;94480;1192;98806;-71
2021/09/11 02:49:59;;;;;;;14.10;8.70;;;;;;;11.20;79.54;100566.05;94459;1193;88297;-73
2021/09/11 02:52:08;;;;;;;12.40;9.20;;;;;;;11.14;79.59;100564.32;94472;1192;93618;-71
2021/09/11 02:54:18;;;;;;;9.40;8.20;;;;;;;11.08;79.69;100561.29;94504;1192;80635;-72
2021/09/11 02:56:26;;;;;;;11.30;9.40;;;;;;;11.04;79.73;100556.41;94489;1192;81980;-72
2021/09/11 02:58:33;;;;;;;12.30;9.30;;;;;;;11.00;79.68;100556.15;94481;1192;99363;-71
2021/09/11 03:00:41;;;;;;;11.60;8.80;;;;;;;10.97;79.78;100556.90;94472;1192;88233;-73
2021/09/11 03:02:48;;;;;;;14.10;9.00;;;;;;;10.94;79.80;100558.69;94503;1192;93070;-72
2021/09/11 03:04:56;;;;;;;11.60;8.90;;;;;;;10.93;79.90;100552.19;94490;1192;78603;-77
2021/09/11 03:07:04;;;;;;;10.30;8.40;;;;;;;10.91;79.90;100550.99;94488;1192;82157;-77
2021/09/11 03:09:13;;;;;;;11.10;8.50;;;;;;;10.88;79.93;100552.21;94496;1193;97872;-77
2021/09/11 03:11:20;;;;;;;10.70;8.50;;;;;;;10.85;79.96;100557.44;94500;1193;88301;-72
2021/09/11 03:13:28;;;;;;;9.90;8.30;;;;;;;10.82;80.07;100557.16;94486;1192;93140;-73
2021/09/11 03:15:36;;;;;;;12.20;9.00;;;;;;;10.84;80.12;100557.56;94501;1192;77900;-71
2021/09/11 03:17:44;;;;;;;12.30;9.10;;;;;;;10.86;80.19;100554.74;94508;1192;81115;-72
2021/09/11 03:19:52;;;;;;;12.00;9.20;;;;;;;10.81;80.27;100549.66;94484;1192;96998;-78
2021/09/11 03:21:59;;;;;;;12.50;8.40;;;;;;;10.78;80.18;100551.94;94507;1192;87829;-76
2021/09/11 03:24:08;;;;;;;10.80;8.40;;;;;;;10.72;80.17;100553.86;94472;1192;95476;-76
2021/09/11 03:26:16;;;;;;;10.40;8.40;;;;;;;10.67;80.16;100553.38;94544;1193;78370;-72
2021/09/11 03:28:24;;;;;;;12.90;9.00;;;;;;;10.67;80.19;100553.95;94496;1192;80443;-72
2021/09/11 03:30:31;;;;;;;11.10;9.10;;;;;;;10.66;80.17;100551.48;94487;1193;98555;-72
2021/09/11 03:32:39;;;;;;;20.60;10.60;;;;;;;10.65;80.26;100553.59;94472;1192;87396;-72
2021/09/11 03:34:46;;;;;;;10.70;8.80;;;;;;;10.65;80.29;100550.59;94487;1192;94143;-72
2021/09/11 03:36:54;;;;;;;12.20;8.90;;;;;;;10.66;80.32;100552.52;94453;1192;79289;-72
2021/09/11 03:39:01;;;;;;;12.10;9.50;;;;;;;10.70;80.41;100550.48;94483;1193;80470;-72
2021/09/11 03:41:10;;;;;;;12.60;9.90;;;;;;;10.72;80.43;100547.86;94438;1192;99355;-72
2021/09/11 03:43:21;;;;;;;12.40;10.10;;;;;;;10.76;80.44;100543.98;94508;1192;87597;-72
2021/09/11 03:45:28;;;;;;;10.90;9.20;;;;;;;10.77;80.48;100543.16;94455;1193;92037;-72
2021/09/11 03:47:36;;;;;;;12.20;9.70;;;;;;;10.80;80.49;100539.03;94489;1192;80107;-73
2021/09/11 03:49:44;;;;;;;12.20;9.90;;;;;;;10.84;80.47;100536.55;94486;1192;82406;-77
2021/09/11 03:51:51;;;;;;;12.80;10.40;;;;;;;10.90;80.50;100533.77;94487;1192;98338;-78
2021/09/11 03:53:59;;;;;;;12.00;9.10;;;;;;;10.96;80.52;100532.89;94492;1192;87929;-78
2021/09/11 03:56:07;;;;;;;14.50;10.20;;;;;;;10.98;80.49;100529.31;94398;1192;94047;-77
2021/09/11 03:58:15;;;;;;;13.70;9.70;;;;;;;11.03;80.47;100527.66;94509;1192;81532;-76
2021/09/11 04:00:23;;;;;;;13.00;9.20;;;;;;;11.10;80.67;100535.90;94461;1192;81994;-72
2021/09/11 04:02:30;;;;;;;12.20;9.70;;;;;;;11.18;80.72;100536.45;94482;1192;98927;-72
2021/09/11 04:04:38;;;;;;;12.40;9.60;;;;;;;11.22;80.62;100537.13;94335;1193;88028;-77
2021/09/11 04:06:45;;;;;;;14.40;10.30;;;;;;;11.23;80.59;100539.88;94435;1192;93932;-79
2021/09/11 04:08:53;;;;;;;13.40;10.00;;;;;;;11.24;80.50;100535.62;94491;1192;80232;-76
2021/09/11 04:11:01;;;;;;;15.20;10.80;;;;;;;11.29;80.46;100534.91;94426;1193;80378;-77
2021/09/11 04:13:09;;;;;;;15.50;10.60;;;;;;;11.35;80.60;100538.45;94511;1185;97148;-78
2021/09/11 04:15:16;;;;;;;13.50;9.70;;;;;;;11.44;80.56;100540.88;94520;1193;86381;-76
2021/09/11 04:17:24;;;;;;;13.50;11.00;;;;;;;11.52;80.61;100544.81;94509;1192;94554;-79
2021/09/11 04:19:31;;;;;;;13.10;11.10;;;;;;;11.60;80.59;100545.71;94504;1192;78150;-72
2021/09/11 04:21:39;;;;;;;14.50;10.70;;;;;;;11.62;80.49;100550.31;94457;1192;81401;-73
2021/09/11 04:23:46;;;;;;;14.00;10.30;;;;;;;11.61;80.32;100549.92;94534;1192;97364;-72
2021/09/11 04:25:54;;;;;;;16.40;10.40;;;;;;;11.64;80.34;100544.88;94503;1193;88205;-77
2021/09/11 04:28:02;;;;;;;11.00;9.50;;;;;;;11.63;80.22;100544.84;94501;1192;95359;-77
2021/09/11 04:30:12;;;;;;;11.80;10.40;;;;;;;11.63;80.17;100543.73;94471;1192;78236;-71
2021/09/11 04:32:19;;;;;;;13.40;10.30;;;;;;;11.64;80.11;100544.34;94520;1192;82826;-71
2021/09/11 04:34:27;;;;;;;13.60;9.90;;;;;;;11.63;79.99;100546.11;94435;1192;97693;-72
2021/09/11 04:36:35;;;;;;;13.40;10.60;;;;;;;11.64;79.94;100543.63;94475;1193;88553;-72
2021/09/11 04:38:45;;;;;;;13.80;10.30;;;;;;;11.67;79.96;100548.65;94510;1193;94499;-72
2021/09/11 04:40:53;;;;;;;12.90;10.70;;;;;;;11.70;79.99;100552.55;94447;1193;78534;-72
2021/09/11 04:43:01;;;;;;;14.50;10.40;;;;;;;11.70;80.02;100554.79;94467;1192;80596;-71
2021/09/11 04:45:11;;;;;;;13.20;9.90;;;;;;;11.71;80.01;100554.23;94464;1192;97474;-72
2021/09/11 04:47:19;;;;;;;13.10;10.80;;;;;;;11.73;80.07;100554.77;94466;1192;88170;-72
2021/09/11 04:49:26;;;;;;;15.30;10.30;;;;;;;11.80;80.07;100554.90;94492;1192;93354;-78
2021/09/11 04:51:34;;;;;;;13.90;11.00;;;;;;;11.91;80.08;100554.49;94447;1193;79607;-77
2021/09/11 04:53:41;;;;;;;14.10;10.30;;;;;;;11.96;80.15;100557.25;94481;1192;80967;-78
2021/09/11 04:55:49;;;;;;;13.10;10.20;;;;;;;12.00;80.17;100559.04;94486;1192;97162;-70
2021/09/11 04:57:56;;;;;;;14.90;10.60;;;;;;;12.05;80.15;100559.84;94503;1193;88352;-71
2021/09/11 05:00:10;;;;;;;12.40;10.40;;;;;;;12.07;80.20;100561.60;94518;1188;94255;-76
2021/09/11 05:02:17;;;;;;;14.50;10.20;;;;;;;12.09;80.11;100562.17;94508;1192;78407;-76
2021/09/11 05:04:25;;;;;;;15.20;11.30;;;;;;;12.14;80.10;100563.59;94508;1192;80853;-73
2021/09/11 05:06:32;;;;;;;14.00;11.30;;;;;;;12.18;80.20;100563.03;94407;1193;98946;-72
2021/09/11 05:08:40;;;;;;;13.90;10.90;;;;;;;12.28;80.17;100565.40;94477;1193;87567;-72
2021/09/11 05:10:48;;;;;;;15.80;11.40;;;;;;;12.46;80.41;100562.33;94456;1193;94410;-77
2021/09/11 05:12:58;;;;;;;14.00;11.10;;;;;;;13.32;81.17;100558.86;94461;1192;79272;-75
2021/09/11 05:15:07;;;;;;;13.70;10.50;;;;;;;14.46;80.74;100556.03;94516;1192;80371;-72
2021/09/11 05:17:15;;;;;;;14.60;11.00;;;;;;;15.46;79.44;100553.20;94524;1192;97541;-73
2021/09/11 05:19:22;;;;;;;12.00;9.90;;;;;;;16.65;78.59;100549.77;94461;1192;86248;-76
2021/09/11 05:21:30;;;;;;;12.00;9.90;;;;;;;17.59;76.85;100545.41;94499;1192;95195;-76
2021/09/11 05:23:38;;;;;;;14.60;11.00;;;;;;;18.17;74.90;100549.13;94463;1192;80136;-76
2021/09/11 05:25:45;;;;;;;11.90;10.00;;;;;;;18.57;73.24;100549.43;94477;1193;80823;-69
2021/09/11 05:27:53;;;;;;;13.00;10.50;;;;;;;18.39;71.94;100552.00;94553;1192;97792;-72
2021/09/11 05:30:00;;;;;;;14.60;10.90;;;;;;;17.63;71.80;100548.35;94474;1193;88185;-72
2021/09/11 05:32:09;;;;;;;14.10;10.90;;;;;;;17.05;72.03;100552.18;94436;1192;94602;-71
2021/09/11 05:34:20;;;;;;;14.50;11.30;;;;;;;16.56;72.32;100549.46;94506;1193;79011;-72
2021/09/11 05:36:31;;;;;;;13.90;12.10;;;;;;;16.22;72.45;100550.92;94523;1192;81405;-72
2021/09/11 05:38:38;;;;;;;12.50;10.70;;;;;;;15.99;72.81;100548.54;94524;1192;99120;-72
2021/09/11 05:40:46;;;;;;;15.00;10.90;;;;;;;15.81;73.06;100550.14;94520;1192;86977;-74
2021/09/11 05:42:53;;;;;;;14.50;11.80;;;;;;;15.66;73.22;100547.80;94513;1192;94638;-74
2021/09/11 05:45:05;;;;;;;13.30;10.90;;;;;;;15.55;73.47;100549.16;94472;1192;80022;-72
2021/09/11 05:47:12;;;;;;;12.30;10.40;;;;;;;15.49;73.63;100546.39;94528;1192;80527;-72
2021/09/11 05:49:20;;;;;;;16.10;11.40;;;;;;;15.50;73.84;100544.25;94521;1192;99079;-75
2021/09/11 05:51:28;;;;;;;11.60;9.70;;;;;;;15.52;74.12;100542.80;94436;1192;86303;-77
2021/09/11 05:53:38;;;;;;;14.50;10.80;;;;;;;15.55;74.26;100542.59;94475;1192;93015;-77
2021/09/11 05:55:46;;;;;;;15.90;11.70;;;;;;;15.82;74.17;100540.95;94461;1192;80241;-72
2021/09/11 05:57:56;;;;;;;16.20;10.70;;;;;;;16.13;73.97;100541.86;94471;1192;83550;-72
2021/09/11 06:00:05;;;;;;;12.60;10.50;;;;;;;16.27;73.83;100545.98;94494;1192;98242;-72
2021/09/11 06:02:20;;;;;;;13.10;11.50;;;;;;;16.32;73.75;100544.96;94477;1193;87194;-71
2021/09/11 06:04:28;;;;;;;13.20;10.10;;;;;;;16.37;73.71;100542.71;94475;1192;93015;-72
2021/09/11 06:06:37;;;;;;;12.80;10.10;;;;;;;16.43;73.72;100539.58;94520;1192;78751;-70
2021/09/11 06:08:45;;;;;;;14.90;10.80;;;;;;;16.62;73.62;100538.25;94513;1192;81426;-71
2021/09/11 06:10:52;;;;;;;14.80;10.50;;;;;;;16.65;73.41;100541.63;94463;1193;99524;-71
2021/09/11 06:13:00;;;;;;;13.40;11.00;;;;;;;16.65;73.47;100544.73;94501;1193;88354;-72
2021/09/11 06:15:12;;;;;;;13.40;10.20;;;;;;;16.69;73.53;100548.51;94490;1192;94040;-78
2021/09/11 06:17:20;;;;;;;14.70;10.40;;;;;;;16.75;73.63;100548.20;94500;1192;80462;-77
2021/09/11 06:19:28;;;;;;;10.70;9.00;;;;;;;16.85;73.68;100554.80;94531;1193;81565;-75
2021/09/11 06:21:35;;;;;;;14.00;10.20;;;;;;;16.99;73.64;100553.77;94415;1192;98260;-77
2021/09/11 06:23:43;;;;;;;12.80;9.50;;;;;;;17.12;73.56;100554.80;94483;1192;87417;-77
2021/09/11 06:25:50;;;;;;;16.40;9.90;;;;;;;17.36;73.28;100551.63;94433;1192;93888;-72
2021/09/11 06:27:58;;;;;;;12.70;9.20;;;;;;;17.61;72.74;100555.02;94511;1192;79466;-71
2021/09/11 06:30:08;;;;;;;11.10;9.20;;;;;;;17.80;72.31;100557.41;94519;1192;80393;-76
2021/09/11 06:32:15;;;;;;;12.60;9.00;;;;;;;17.81;72.10;100554.91;94502;1192;98565;-76
2021/09/11 06:34:23;;;;;;;14.30;9.60;;;;;;;17.77;71.45;100556.99;94480;1192;87619;-75
2021/09/11 06:36:30;;;;;;;13.90;9.60;;;;;;;17.75;71.34;100557.48;94437;1193;94232;-78
2021/09/11 06:38:39;;;;;;;12.20;9.10;;;;;;;17.72;71.22;100558.98;94495;1192;79434;-77
2021/09/11 06:40:47;;;;;;;11.50;9.30;;;;;;;17.77;71.36;100560.44;94475;1192;80822;-76
2021/09/11 06:42:55;;;;;;;10.10;8.50;;;;;;;17.82;71.14;100564.18;94490;1192;98603;-76
2021/09/11 06:45:02;;;;;;;11.50;8.70;;;;;;;17.91;70.85;100566.88;94508;1192;87043;-76
2021/09/11 06:47:10;;;;;;;15.50;9.40;;;;;;;18.23;70.41;100569.24;94471;1192;93978;-76
2021/09/11 06:49:18;;;;;;;12.20;9.20;;;;;;;18.52;70.10;100571.68;94541;1192;78170;-71
2021/09/11 06:51:26;;;;;;;12.00;9.00;;;;;;;18.62;69.98;100568.96;94455;1192;82303;-78
2021/09/11 06:53:36;;;;;;;13.60;8.50;;;;;;;18.67;69.75;100566.52;94520;1192;97947;-76
2021/09/11 06:55:44;;;;;;;12.70;9.60;;;;;;;18.76;69.56;100567.02;94495;1192;87654;-77
2021/09/11 06:57:51;;;;;;;14.60;9.20;;;;;;;19.24;69.67;100564.33;94499;1193;94496;-76
2021/09/11 06:59:59;;;;;;;13.70;8.70;;;;;;;19.50;69.09;100563.45;94471;1192;79145;-71
2021/09/11 07:02:07;;;;;;;10.60;8.40;;;;;;;19.59;68.91;100565.15;94519;1192;82054;-70
2021/09/11 07:04:24;;;;;;;11.70;8.10;;;;;;;19.78;68.73;100565.80;94525;1192;99070;-70
2021/09/11 07:06:34;;;;;;;11.60;8.00;;;;;;;19.77;68.17;100567.48;94536;1192;87521;-72
2021/09/11 07:08:41;;;;;;;13.80;9.00;;;;;;;19.70;67.71;100567.46;94519;1192;93621;-72
2021/09/11 07:10:52;;;;;;;11.60;8.90;;;;;;;19.69;67.72;100570.57;94445;1192;79070;-75
2021/09/11 07:12:59;;;;;;;11.20;8.10;;;;;;;19.77;67.78;100574.14;94510;1192;80730;-75
2021/09/11 07:15:09;;;;;;;14.00;8.70;;;;;;;19.84;66.92;100574.36;94481;1192;98242;-76
2021/09/11 07:17:17;;;;;;;15.60;8.80;;;;;;;19.94;66.65;100572.48;94544;1192;88043;-75
2021/09/11 07:19:24;;;;;;;12.60;8.20;;;;;;;20.02;66.57;100571.64;94475;1192;94672;-71
2021/09/11 07:21:32;;;;;;;11.10;8.30;;;;;;;20.07;66.45;100569.85;94453;1192;79693;-71
2021/09/11 07:23:40;;;;;;;13.30;8.60;;;;;;;20.06;65.77;100567.54;94517;1192;80415;-70
2021/09/11 07:25:47;;;;;;;11.80;8.60;;;;;;;20.10;65.72;100560.77;94485;1192;99181;-75
2021/09/11 07:27:55;;;;;;;12.60;8.10;;;;;;;20.15;65.56;100564.02;94498;1192;87671;-76
2021/09/11 07:30:03;;;;;;;10.00;7.50;;;;;;;20.19;65.41;100559.73;94451;1193;94421;-76
2021/09/11 07:32:14;;;;;;;13.90;8.10;;;;;;;20.30;65.20;100560.30;94506;1193;79438;-77
2021/09/11 07:34:22;;;;;;;11.30;7.50;;;;;;;20.62;65.05;100557.20;94484;1192;82191;-72
2021/09/11 07:36:29;;;;;;;11.70;7.70;;;;;;;20.76;64.79;100564.39;94457;1192;98360;-68
2021/09/11 07:38:38;;;;;;;10.80;7.30;;;;;;;20.72;64.50;100564.16;94489;1192;87586;-67
2021/09/11 07:40:45;;;;;;;11.20;7.80;;;;;;;20.68;64.50;100562.67;94472;1192;94004;-59
2021/09/11 07:42:54;;;;;;;13.40;7.70;;;;;;;20.74;64.68;100563.91;94281;1193;78125;-59
2021/09/11 07:45:12;;;;;;;12.70;7.40;;;;;;;20.83;64.43;100561.74;94496;1192;82382;-57
2021/09/11 07:47:21;;;;;;;12.40;7.40;;;;;;;20.92;64.12;100555.70;94481;1192;99019;-61
2021/09/11 07:49:28;;;;;;;12.10;7.00;;;;;;;20.99;63.75;100555.21;94533;1192;87046;-64
2021/09/11 07:51:36;;;;;;;11.20;7.20;;;;;;;21.07;63.56;100551.44;94263;1193;93198;-66
2021/09/11 07:53:43;;;;;;;8.90;6.50;;;;;;;21.18;63.50;100549.62;94489;1192;79856;-58
2021/09/11 07:55:51;;;;;;;12.10;6.90;;;;;;;21.31;63.56;100552.31;94477;1192;81178;-59
2021/09/11 07:57:59;;;;;;;10.10;7.10;;;;;;;21.62;63.17;100551.83;94473;1192;97985;-66
2021/09/11 08:00:12;;;;;;;10.10;6.70;;;;;;;22.02;62.76;100550.34;94481;1192;87806;-59
2021/09/11 08:02:19;;;;;;;8.70;6.90;;;;;;;22.74;62.41;100554.84;94521;1192;94295;-59
2021/09/11 08:04:27;;;;;;;10.80;6.60;;;;;;;23.46;61.45;100547.58;94520;1192;78596;-66
2021/09/11 08:06:34;;;;;;;8.80;6.30;;;;;;;24.00;59.94;100545.53;94474;1193;81202;-66
2021/09/11 08:08:42;;;;;;;12.20;6.70;;;;;;;24.60;59.58;100545.46;94489;1193;97950;-66
2021/09/11 08:10:53;;;;;;;9.50;7.00;;;;;;;25.70;59.03;100544.17;94273;1193;87845;-60
2021/09/11 08:13:01;;;;;;;9.60;7.00;;;;;;;27.14;57.31;100545.48;94444;1192;94469;-59
2021/09/11 08:15:11;;;;;;;8.90;7.00;;;;;;;28.48;55.62;100538.15;94540;1192;79834;-70
2021/09/11 08:17:19;;;;;;;9.90;6.70;;;;;;;29.78;54.02;100537.98;94342;1193;82163;-67
2021/09/11 08:19:30;;;;;;;9.50;6.90;;;;;;;30.89;51.81;100541.77;94547;1193;96525;-59
2021/09/11 08:21:38;;;;;;;10.60;7.20;;;;;;;31.81;50.16;100540.79;94485;1192;87667;-58
2021/09/11 08:23:45;;;;;;;11.70;6.50;;;;;;;32.45;48.45;100533.58;94484;1192;92801;-58
2021/09/11 08:25:57;;;;;;;8.60;6.80;;;;;;;32.76;46.72;100539.45;94451;1192;79622;-66
2021/09/11 08:28:11;;;;;;;8.30;6.40;;;;;;;33.28;45.37;100532.23;94442;1192;80374;-72
2021/09/11 08:30:22;;;;;;;10.60;6.30;;;;;;;33.61;43.96;100532.12;94470;1192;98693;-66
2021/09/11 08:32:30;;;;;;;8.50;5.80;;;;;;;33.86;42.47;100529.51;94517;1192;88430;-60
2021/09/11 08:34:37;;;;;;;8.60;6.70;;;;;;;34.17;41.31;100528.64;94489;1192;94388;-64
2021/09/11 08:36:45;;;;;;;9.60;6.20;;;;;;;34.34;40.34;100531.13;94459;1192;77881;-68
2021/09/11 08:38:52;;;;;;;7.70;5.40;;;;;;;34.48;39.95;100525.77;94495;1192;82110;-59
2021/09/11 08:41:03;;;;;;;7.20;6.10;;;;;;;34.71;39.33;100530.86;94479;1193;97999;-67
2021/09/11 08:43:10;;;;;;;9.30;6.10;;;;;;;34.75;38.84;100531.89;94513;1192;88319;-67
2021/09/11 08:45:19;;;;;;;7.80;5.70;;;;;;;34.79;38.07;100529.09;94449;1192;93940;-59
2021/09/11 08:47:27;;;;;;;10.50;6.10;;;;;;;34.72;37.69;100529.05;94443;1192;79393;-59
2021/09/11 08:49:35;;;;;;;10.40;6.20;;;;;;;34.71;37.36;100527.77;94493;1192;82299;-68
2021/09/11 08:51:43;;;;;;;8.80;6.20;;;;;;;34.60;36.46;100525.89;94416;1192;98930;-67
2021/09/11 08:53:51;;;;;;;7.30;5.70;;;;;;;34.38;36.32;100521.81;94438;1192;86858;-64
2021/09/11 08:55:59;;;;;;;8.10;5.70;;;;;;;34.42;36.48;100520.65;94459;1192;93651;-65
2021/09/11 08:58:08;;;;;;;10.10;5.70;;;;;;;34.40;35.92;100523.05;94398;1192;80067;-66
2021/09/11 09:00:17;;;;;;;8.00;5.90;;;;;;;34.06;35.27;100523.39;94463;1192;80297;-58
2021/09/11 09:02:27;;;;;;;7.90;5.80;;;;;;;34.30;35.43;100517.73;94482;1192;99678;-60
2021/09/11 09:04:50;;;;;;;9.30;6.20;;;;;;;34.40;35.95;100518.19;94511;1192;88192;-68
2021/09/11 09:07:01;;;;;;;12.00;6.30;;;;;;;34.63;35.51;100515.33;94497;1192;94131;-66
2021/09/11 09:09:14;;;;;;;7.60;5.80;;;;;;;34.49;35.33;100510.71;94479;1192;79651;-67
2021/09/11 09:11:31;;;;;;;11.10;6.90;;;;;;;34.60;34.96;100511.87;94502;1192;81519;-60
2021/09/11 09:13:53;;;;;;;9.50;5.90;;;;;;;34.38;34.55;100511.31;94307;1193;98414;-60
2021/09/11 09:16:15;;;;;;;10.10;5.40;;;;;;;34.60;34.48;100513.55;94483;1192;88023;-67
2021/09/11 09:18:33;;;;;;;7.50;5.40;;;;;;;34.38;34.25;100511.05;94499;1192;93869;-67
2021/09/11 09:20:41;;;;;;;7.00;5.00;;;;;;;34.53;34.06;100511.90;94291;1193;78505;-60
2021/09/11 09:22:52;;;;;;;7.60;5.40;;;;;;;34.65;33.70;100516.03;94520;1192;80655;-60
2021/09/11 09:25:01;;;;;;;6.00;5.10;;;;;;;34.33;33.64;100511.49;94472;1192;97402;-66
2021/09/11 09:27:10;;;;;;;9.20;4.70;;;;;;;34.46;33.33;100514.38;94439;1192;86511;-63
2021/09/11 09:29:19;;;;;;;5.10;4.40;;;;;;;34.66;33.45;100520.09;94413;1192;93686;-61
2021/09/11 09:31:27;;;;;;;14.20;5.70;;;;;;;34.69;31.80;100519.25;94440;1192;78211;-67
2021/09/11 09:33:39;;;;;;;5.50;4.50;;;;;;;34.22;31.98;100522.33;94469;1192;81462;-68
2021/09/11 09:35:51;;;;;;;5.70;4.60;;;;;;;34.35;32.42;100522.01;94434;1192;98082;-61
2021/09/11 09:38:02;;;;;;;5.80;4.20;;;;;;;34.29;31.89;100522.42;94443;1192;87322;-60
2021/09/11 09:40:15;;;;;;;6.40;4.00;;;;;;;34.00;32.01;100520.09;94410;1192;94346;-61
2021/09/11 09:42:23;;;;;;;6.70;4.30;;;;;;;33.39;31.49;100522.71;94443;1192;79705;-63
2021/09/11 09:44:40;;;;;;;12.60;4.60;;;;;;;32.86;31.51;100521.58;94453;1192;80597;-67
2021/09/11 09:46:50;;;;;;;4.40;3.70;;;;;;;32.23;31.74;100514.98;94453;1192;99513;-67
2021/09/11 09:49:02;;;;;;;7.80;4.30;;;;;;;31.82;32.54;100517.85;94421;1192;87015;-66
2021/09/11 09:51:12;;;;;;;6.20;4.20;;;;;;;31.40;33.23;100521.08;94419;1192;94761;-64